createdAt,value
2023-02-07T00:00:06.648Z,-0.61
2023-02-07T00:02:42.808Z,-0.60
2023-02-07T00:05:11.983Z,-0.60
2023-02-07T00:07:39.936Z,-0.61
2023-02-07T00:10:10.045Z,-0.59
2023-02-07T00:12:38.763Z,-0.61
2023-02-07T00:15:07.881Z,-0.61
2023-02-07T00:17:35.687Z,-0.61
2023-02-07T00:20:03.895Z,-0.61
2023-02-07T00:22:33.746Z,-0.64
2023-02-07T00:25:02.407Z,-0.65
2023-02-07T00:27:30.110Z,-0.65
2023-02-07T00:29:57.980Z,-0.64
2023-02-07T00:32:25.632Z,-0.65
2023-02-07T00:34:53.322Z,-0.67
2023-02-07T00:37:20.925Z,-0.68
2023-02-07T00:39:50.421Z,-0.70
2023-02-07T00:42:18.361Z,-0.69
2023-02-07T00:44:46.007Z,-0.71
2023-02-07T00:47:13.608Z,-0.70
2023-02-07T00:49:41.293Z,-0.69
2023-02-07T00:52:09.575Z,-0.71
2023-02-07T00:54:38.884Z,-0.72
2023-02-07T00:57:07.783Z,-0.71
2023-02-07T00:59:37.316Z,-0.71
2023-02-07T01:02:04.949Z,-0.71
2023-02-07T01:04:36.929Z,-0.72
2023-02-07T01:07:04.833Z,-0.74
2023-02-07T01:09:33.498Z,-0.75
2023-02-07T01:12:01.298Z,-0.76
2023-02-07T01:14:30.233Z,-0.79
2023-02-07T01:16:57.992Z,-0.79
2023-02-07T01:19:25.599Z,-0.82
2023-02-07T01:21:53.317Z,-0.83
2023-02-07T01:24:22.763Z,-0.86
2023-02-07T01:26:51.456Z,-0.88
2023-02-07T01:29:19.218Z,-0.91
2023-02-07T01:31:48.305Z,-0.93
2023-02-07T01:34:17.762Z,-0.96
2023-02-07T01:36:45.406Z,-1.01
2023-02-07T01:39:13.338Z,-1.03
2023-02-07T01:41:43.856Z,-1.04
2023-02-07T01:44:45.385Z,-1.09
2023-02-07T01:47:18.925Z,-1.11
2023-02-07T01:49:48.821Z,-1.14
2023-02-07T01:52:20.566Z,-1.16
2023-02-07T01:54:52.123Z,-1.20
2023-02-07T01:57:23.861Z,-1.21
2023-02-07T01:59:58.234Z,-1.23
2023-02-07T02:02:31.812Z,-1.24
2023-02-07T02:05:00.400Z,-1.25
2023-02-07T02:07:32.799Z,-1.26
2023-02-07T02:10:00.865Z,-1.28
2023-02-07T02:12:55.527Z,-1.30
2023-02-07T02:15:38.217Z,-1.31
2023-02-07T02:18:27.719Z,-1.35
2023-02-07T02:21:37.859Z,-1.37
2023-02-07T02:24:25.399Z,-1.41
2023-02-07T02:26:59.436Z,-1.42
2023-02-07T02:30:07.904Z,-1.46
2023-02-07T02:33:09.859Z,-1.49
2023-02-07T02:35:52.818Z,-1.50
2023-02-07T02:38:56.401Z,-1.50
2023-02-07T02:41:54.736Z,-1.52
2023-02-07T02:44:31.111Z,-1.55
2023-02-07T02:47:04.768Z,-1.57
2023-02-07T02:49:36.740Z,-1.59
2023-02-07T02:52:05.957Z,-1.59
2023-02-07T02:54:41.778Z,-1.62
2023-02-07T02:57:43.833Z,-1.65
2023-02-07T03:00:43.748Z,-1.68
2023-02-07T03:03:30.685Z,-1.70
2023-02-07T03:06:10.612Z,-1.72
2023-02-07T03:09:09.841Z,-1.75
2023-02-07T03:11:47.447Z,-1.76
2023-02-07T03:14:25.841Z,-1.78
2023-02-07T03:17:05.607Z,-1.78
2023-02-07T03:19:40.850Z,-1.80
2023-02-07T03:22:13.366Z,-1.82
2023-02-07T03:24:46.679Z,-1.83
2023-02-07T03:27:17.734Z,-1.85
2023-02-07T03:29:48.943Z,-1.85
2023-02-07T03:32:20.759Z,-1.85
2023-02-07T03:34:54.333Z,-1.87
2023-02-07T03:37:27.315Z,-1.89
2023-02-07T03:39:55.196Z,-1.89
2023-02-07T03:42:28.797Z,-1.92
2023-02-07T03:44:58.858Z,-1.94
2023-02-07T03:47:29.283Z,-2.00
2023-02-07T03:50:21.826Z,-2.00
2023-02-07T03:52:54.526Z,-2.01
2023-02-07T03:55:22.937Z,-1.99
2023-02-07T03:57:52.301Z,-2.04
2023-02-07T04:00:22.371Z,-2.06
2023-02-07T04:02:50.155Z,-2.05
2023-02-07T04:05:18.742Z,-2.09
2023-02-07T04:07:47.871Z,-2.10
2023-02-07T04:11:05.778Z,-2.13
2023-02-07T04:13:34.711Z,-2.12
2023-02-07T04:16:04.926Z,-2.18
2023-02-07T04:18:32.558Z,-2.20
2023-02-07T04:21:04.799Z,-2.19
2023-02-07T04:26:25.393Z,-2.22
2023-02-07T04:28:54.750Z,-2.22
2023-02-07T04:31:25.427Z,-2.23
2023-02-07T04:33:53.025Z,-2.24
2023-02-07T04:36:22.625Z,-2.25
2023-02-07T04:38:51.837Z,-2.24
2023-02-07T04:41:21.770Z,-2.27
2023-02-07T04:43:51.747Z,-2.30
2023-02-07T04:46:23.719Z,-2.31
2023-02-07T04:48:53.768Z,-2.33
2023-02-07T04:51:23.836Z,-2.34
2023-02-07T04:53:53.252Z,-2.37
2023-02-07T04:56:21.313Z,-2.37
2023-02-07T04:59:14.149Z,-2.40
2023-02-07T05:01:43.478Z,-2.44
2023-02-07T05:04:11.287Z,-2.45
2023-02-07T05:06:42.752Z,-2.47
2023-02-07T05:09:10.855Z,-2.50
2023-02-07T05:12:04.252Z,-2.52
2023-02-07T05:14:33.309Z,-2.54
2023-02-07T05:17:03.738Z,-2.56
2023-02-07T05:19:34.729Z,-2.57
2023-02-07T05:22:02.272Z,-2.58
2023-02-07T05:24:29.877Z,-2.62
2023-02-07T05:26:58.477Z,-2.60
2023-02-07T05:29:26.430Z,-2.63
2023-02-07T05:32:11.845Z,-2.65
2023-02-07T05:34:40.937Z,-2.69
2023-02-07T05:37:08.539Z,-2.69
2023-02-07T05:39:36.283Z,-2.70
2023-02-07T05:42:04.004Z,-2.72
2023-02-07T05:44:31.571Z,-2.73
2023-02-07T05:46:59.144Z,-2.73
2023-02-07T05:49:28.753Z,-2.75
2023-02-07T05:51:57.843Z,-2.77
2023-02-07T05:54:51.768Z,-2.77
2023-02-07T05:57:22.885Z,-2.80
2023-02-07T05:59:51.266Z,-2.81
2023-02-07T06:02:19.772Z,-2.83
2023-02-07T06:04:48.251Z,-2.86
2023-02-07T06:07:17.151Z,-2.87
2023-02-07T06:09:44.845Z,-2.88
2023-02-07T06:12:12.755Z,-2.89
2023-02-07T06:14:43.848Z,-2.91
2023-02-07T06:17:13.742Z,-2.92
2023-02-07T06:19:41.336Z,-2.96
2023-02-07T06:22:10.779Z,-2.97
2023-02-07T06:24:39.819Z,-2.98
2023-02-07T06:27:11.340Z,-3.00
2023-02-07T06:29:38.936Z,-3.01
2023-02-07T06:32:07.741Z,-3.02
2023-02-07T06:34:36.273Z,-3.04
2023-02-07T06:37:03.935Z,-3.05
2023-02-07T06:39:31.841Z,-3.06
2023-02-07T06:42:26.291Z,-3.09
2023-02-07T06:44:54.845Z,-3.12
2023-02-07T06:47:26.766Z,-3.14
2023-02-07T06:49:55.227Z,-3.14
2023-02-07T06:52:23.753Z,-3.16
2023-02-07T06:54:52.877Z,-3.16
2023-02-07T06:57:20.532Z,-3.18
2023-02-07T06:59:49.548Z,-3.18
2023-02-07T07:02:17.346Z,-3.20
2023-02-07T07:04:45.437Z,-3.22
2023-02-07T07:07:13.737Z,-3.22
2023-02-07T07:09:41.354Z,-3.23
2023-02-07T07:12:09.477Z,-3.26
2023-02-07T07:14:37.037Z,-3.27
2023-02-07T07:17:06.758Z,-3.27
2023-02-07T07:19:35.767Z,-3.28
2023-02-07T07:22:05.836Z,-3.28
2023-02-07T07:24:33.452Z,-3.30
2023-02-07T07:27:01.464Z,-3.28
2023-02-07T07:29:29.090Z,-3.28
2023-02-07T07:31:56.765Z,-3.29
2023-02-07T07:34:26.636Z,-3.29
2023-02-07T07:36:56.752Z,-3.27
2023-02-07T07:39:30.224Z,-3.23
2023-02-07T07:41:59.735Z,-3.20
2023-02-07T07:44:45.983Z,-3.14
2023-02-07T07:47:13.741Z,-3.10
2023-02-07T07:49:44.841Z,-3.04
2023-02-07T07:52:12.466Z,-3.03
2023-02-07T07:54:40.260Z,-3.02
2023-02-07T07:57:07.809Z,-2.99
2023-02-07T07:59:36.192Z,-3.00
2023-02-07T08:02:05.352Z,-2.99
2023-02-07T08:04:33.072Z,-2.97
2023-02-07T08:07:03.412Z,-2.93
2023-02-07T08:09:55.778Z,-2.92
2023-02-07T08:12:48.920Z,-2.89
2023-02-07T08:15:43.754Z,-2.63
2023-02-07T08:18:12.332Z,-2.50
2023-02-07T08:20:40.247Z,-2.39
2023-02-07T08:23:09.740Z,-2.28
2023-02-07T08:25:38.217Z,-2.13
2023-02-07T08:28:05.995Z,-1.98
2023-02-07T08:30:33.864Z,-1.87
2023-02-07T08:33:02.887Z,-1.76
2023-02-07T08:35:30.775Z,-1.63
2023-02-07T08:37:59.007Z,-1.48
2023-02-07T08:40:28.619Z,-1.38
2023-02-07T08:42:56.279Z,-1.30
2023-02-07T08:45:24.302Z,-1.29
2023-02-07T08:47:54.739Z,-1.19
2023-02-07T08:50:22.564Z,-1.11
2023-02-07T08:52:50.175Z,-1.11
2023-02-07T08:55:17.939Z,-1.10
2023-02-07T08:57:47.602Z,-1.09
2023-02-07T09:00:16.581Z,-1.03
2023-02-07T09:02:47.893Z,-1.01
2023-02-07T09:05:15.706Z,-1.00
2023-02-07T09:07:43.812Z,-0.99
2023-02-07T09:10:13.249Z,-0.98
2023-02-07T09:12:40.872Z,-0.94
2023-02-07T09:15:11.110Z,-0.88
2023-02-07T09:17:38.851Z,-0.82
2023-02-07T09:20:07.174Z,-0.76
2023-02-07T09:22:55.892Z,-0.67
2023-02-07T09:25:23.608Z,-0.61
2023-02-07T09:27:51.856Z,-0.47
2023-02-07T09:30:21.133Z,-0.43
2023-02-07T09:32:48.708Z,-0.38
2023-02-07T09:35:18.727Z,-0.34
2023-02-07T09:37:49.726Z,-0.28
2023-02-07T09:40:19.832Z,-0.28
2023-02-07T09:43:00.010Z,-0.24
2023-02-07T09:45:59.771Z,-0.20
2023-02-07T09:48:38.370Z,-0.05
2023-02-07T09:51:08.063Z,-0.05
2023-02-07T09:53:41.814Z,-0.05
2023-02-07T09:56:13.750Z,-0.02
2023-02-07T09:58:45.626Z,0.03
2023-02-07T10:01:16.425Z,0.08
2023-02-07T10:03:53.888Z,0.14
2023-02-07T10:06:27.028Z,0.23
2023-02-07T10:09:01.724Z,0.31
2023-02-07T10:11:44.175Z,0.41
2023-02-07T10:14:38.838Z,0.53
2023-02-07T10:17:31.383Z,0.70
2023-02-07T10:20:14.763Z,0.74
2023-02-07T10:22:55.390Z,0.88
2023-02-07T10:25:36.869Z,0.98
2023-02-07T10:28:28.564Z,1.06
2023-02-07T10:31:02.896Z,1.15
2023-02-07T10:33:34.219Z,1.29
2023-02-07T10:36:06.864Z,1.48
2023-02-07T10:38:43.388Z,1.54
2023-02-07T10:41:16.841Z,1.58
2023-02-07T10:43:51.714Z,1.68
2023-02-07T10:46:24.745Z,1.71
2023-02-07T10:48:54.835Z,1.78
2023-02-07T10:51:30.628Z,1.82
2023-02-07T10:54:07.545Z,1.80
2023-02-07T10:56:40.076Z,1.83
2023-02-07T10:59:32.649Z,1.83
2023-02-07T11:02:01.478Z,1.85
2023-02-07T11:04:38.891Z,1.95
2023-02-07T11:07:08.638Z,1.99
2023-02-07T11:09:37.701Z,2.08
2023-02-07T11:12:16.147Z,2.05
2023-02-07T11:15:02.311Z,2.03
2023-02-07T11:17:31.747Z,2.08
2023-02-07T11:20:05.415Z,2.11
2023-02-07T11:22:35.732Z,2.18
2023-02-07T11:25:06.286Z,2.20
2023-02-07T11:27:40.305Z,2.19
2023-02-07T11:30:15.554Z,2.20
2023-02-07T11:32:45.201Z,2.21
2023-02-07T11:35:41.792Z,2.31
2023-02-07T11:38:18.750Z,2.30
2023-02-07T11:40:50.508Z,2.25
2023-02-07T11:43:20.135Z,2.28
2023-02-07T11:45:51.004Z,2.39
2023-02-07T11:48:21.847Z,2.50
2023-02-07T11:50:55.811Z,2.37
2023-02-07T11:53:51.656Z,2.38
2023-02-07T11:56:25.720Z,2.35
2023-02-07T11:58:55.540Z,2.33
2023-02-07T12:01:27.311Z,2.42
2023-02-07T12:04:00.887Z,2.46
2023-02-07T12:06:36.194Z,2.55
2023-02-07T12:09:22.091Z,2.63
2023-02-07T12:11:51.974Z,2.68
2023-02-07T12:14:28.689Z,2.59
2023-02-07T12:17:01.681Z,2.56
2023-02-07T12:19:58.935Z,2.59
2023-02-07T12:22:38.570Z,2.60
2023-02-07T12:25:22.740Z,2.62
2023-02-07T12:27:56.236Z,2.66
2023-02-07T12:30:33.333Z,2.63
2023-02-07T12:33:10.092Z,2.67
2023-02-07T12:35:55.602Z,2.68
2023-02-07T12:38:29.695Z,2.68
2023-02-07T12:41:02.741Z,2.66
2023-02-07T12:43:33.882Z,2.73
2023-02-07T12:46:10.905Z,2.66
2023-02-07T12:48:55.911Z,2.65
2023-02-07T12:51:56.644Z,2.71
2023-02-07T12:54:39.743Z,2.77
2023-02-07T12:57:15.016Z,2.72
2023-02-07T12:59:57.213Z,2.82
2023-02-07T13:02:36.675Z,2.79
2023-02-07T13:05:46.944Z,2.92
2023-02-07T13:08:27.085Z,3.06
2023-02-07T13:11:04.548Z,3.06
2023-02-07T13:13:36.629Z,3.07
2023-02-07T13:16:11.763Z,3.06
2023-02-07T13:18:47.330Z,3.08
2023-02-07T13:21:22.509Z,3.13
2023-02-07T13:23:51.256Z,3.20
2023-02-07T13:26:24.884Z,3.19
2023-02-07T13:28:56.548Z,3.16
2023-02-07T13:31:30.439Z,3.18
2023-02-07T13:33:58.359Z,3.23
2023-02-07T13:36:32.824Z,3.22
2023-02-07T13:39:13.739Z,3.26
2023-02-07T13:41:58.834Z,3.34
2023-02-07T13:44:38.734Z,3.31
2023-02-07T13:47:58.869Z,3.34
2023-02-07T13:50:41.936Z,3.33
2023-02-07T13:53:23.717Z,3.31
2023-02-07T13:55:52.788Z,3.26
2023-02-07T13:59:11.746Z,3.40
2023-02-07T14:01:50.201Z,3.38
2023-02-07T14:04:19.334Z,3.33
2023-02-07T14:06:58.360Z,3.38
2023-02-07T14:09:34.916Z,3.41
2023-02-07T14:12:05.346Z,3.48
2023-02-07T14:14:36.730Z,3.52
2023-02-07T14:17:13.603Z,3.39
2023-02-07T14:19:53.556Z,3.40
2023-02-07T14:22:24.620Z,3.41
2023-02-07T14:25:19.617Z,3.34
2023-02-07T14:28:13.789Z,3.39
2023-02-07T14:30:59.921Z,3.40
2023-02-07T14:33:34.589Z,3.36
2023-02-07T14:36:19.546Z,3.37
2023-02-07T14:39:07.023Z,3.45
2023-02-07T14:41:37.234Z,3.40
2023-02-07T14:44:35.688Z,3.36
2023-02-07T14:47:31.407Z,3.32
2023-02-07T14:50:01.731Z,3.32
2023-02-07T14:52:32.028Z,3.30
2023-02-07T14:55:02.855Z,3.38
2023-02-07T14:58:00.738Z,3.36
2023-02-07T15:00:33.862Z,3.35
2023-02-07T15:03:33.944Z,3.34
2023-02-07T15:06:05.079Z,3.34
2023-02-07T15:08:58.777Z,3.35
2023-02-07T15:11:28.712Z,3.32
2023-02-07T15:13:59.771Z,3.28
2023-02-07T15:16:30.503Z,3.25
2023-02-07T15:19:03.842Z,3.22
2023-02-07T15:21:35.084Z,3.19
2023-02-07T15:24:06.266Z,3.18
2023-02-07T15:26:35.524Z,3.11
2023-02-07T15:29:06.511Z,3.08
2023-02-07T15:31:39.951Z,3.04
2023-02-07T15:34:35.423Z,2.99
2023-02-07T15:37:14.857Z,2.95
2023-02-07T15:39:42.593Z,2.91
2023-02-07T15:42:17.679Z,2.90
2023-02-07T15:44:51.819Z,2.87
2023-02-07T15:47:39.191Z,2.84
2023-02-07T15:50:22.731Z,2.80
2023-02-07T15:52:52.842Z,2.76
2023-02-07T15:55:28.454Z,2.73
2023-02-07T15:57:57.073Z,2.70
2023-02-07T16:00:28.081Z,2.70
2023-02-07T16:03:00.790Z,2.65
2023-02-07T16:05:37.438Z,2.61
2023-02-07T16:08:07.186Z,2.58
2023-02-07T16:10:38.556Z,2.53
2023-02-07T16:13:18.951Z,2.49
2023-02-07T16:15:56.144Z,2.45
2023-02-07T16:19:02.686Z,2.40
2023-02-07T16:21:32.843Z,2.28
2023-02-07T16:24:07.774Z,2.21
2023-02-07T16:26:39.360Z,2.15
2023-02-07T16:29:07.243Z,2.08
2023-02-07T16:31:35.582Z,2.03
2023-02-07T16:34:03.276Z,1.96
2023-02-07T16:36:32.282Z,1.89
2023-02-07T16:38:59.866Z,1.81
2023-02-07T16:41:32.116Z,1.76
2023-02-07T16:44:01.851Z,1.66
2023-02-07T16:46:29.822Z,1.58
2023-02-07T16:48:57.747Z,1.52
2023-02-07T16:51:25.421Z,1.45
2023-02-07T16:53:54.687Z,1.40
2023-02-07T16:56:25.845Z,1.32
2023-02-07T16:58:54.632Z,1.25
2023-02-07T17:01:23.478Z,1.20
2023-02-07T17:03:52.299Z,1.13
2023-02-07T17:06:24.745Z,1.07
2023-02-07T17:08:56.326Z,1.00
2023-02-07T17:11:26.018Z,0.94
2023-02-07T17:14:19.621Z,0.87
2023-02-07T17:16:47.616Z,0.82
2023-02-07T17:19:18.909Z,0.78
2023-02-07T17:21:47.054Z,0.71
2023-02-07T17:24:16.324Z,0.66
2023-02-07T17:26:50.043Z,0.61
2023-02-07T17:29:18.944Z,0.56
2023-02-07T17:31:47.198Z,0.50
2023-02-07T17:34:14.901Z,0.46
2023-02-07T17:36:47.839Z,0.42
2023-02-07T17:39:17.778Z,0.38
2023-02-07T17:41:45.679Z,0.33
2023-02-07T17:44:14.290Z,0.30
2023-02-07T17:46:43.709Z,0.26
2023-02-07T17:49:14.932Z,0.24
2023-02-07T17:51:42.827Z,0.20
2023-02-07T17:54:10.516Z,0.17
2023-02-07T17:56:39.752Z,0.13
2023-02-07T17:59:09.980Z,0.08
2023-02-07T18:01:37.738Z,0.04
2023-02-07T18:04:05.657Z,0.00
2023-02-07T18:06:34.719Z,-0.03
2023-02-07T18:09:03.141Z,-0.06
2023-02-07T18:11:31.174Z,-0.08
2023-02-07T18:14:01.746Z,-0.11
2023-02-07T18:16:32.750Z,-0.14
2023-02-07T18:19:00.357Z,-0.19
2023-02-07T18:21:28.187Z,-0.22
2023-02-07T18:23:56.428Z,-0.25
2023-02-07T18:26:24.502Z,-0.30
2023-02-07T18:28:53.333Z,-0.32
2023-02-07T18:31:25.097Z,-0.33
2023-02-07T18:33:54.345Z,-0.37
2023-02-07T18:36:26.550Z,-0.41
2023-02-07T18:38:54.197Z,-0.46
2023-02-07T18:41:23.899Z,-0.48
2023-02-07T18:43:51.553Z,-0.50
2023-02-07T18:46:22.178Z,-0.51
2023-02-07T18:48:54.820Z,-0.54
2023-02-07T18:51:23.201Z,-0.56
2023-02-07T18:53:51.673Z,-0.57
2023-02-07T18:56:23.773Z,-0.60
2023-02-07T18:58:52.738Z,-0.62
2023-02-07T19:01:24.866Z,-0.64
2023-02-07T19:03:56.112Z,-0.66
2023-02-07T19:06:26.338Z,-0.67
2023-02-07T19:08:54.500Z,-0.70
2023-02-07T19:11:22.318Z,-0.71
2023-02-07T19:13:49.925Z,-0.72
2023-02-07T19:16:19.833Z,-0.75
2023-02-07T19:18:50.895Z,-0.77
2023-02-07T19:21:23.565Z,-0.79
2023-02-07T19:23:51.189Z,-0.82
2023-02-07T19:26:18.880Z,-0.83
2023-02-07T19:28:46.753Z,-0.85
2023-02-07T19:31:18.266Z,-0.87
2023-02-07T19:33:46.190Z,-0.87
2023-02-07T19:36:16.755Z,-0.88
2023-02-07T19:38:46.510Z,-0.90
2023-02-07T19:41:14.161Z,-0.93
2023-02-07T19:43:42.570Z,-0.95
2023-02-07T19:46:10.386Z,-0.96
2023-02-07T19:48:38.049Z,-0.97
2023-02-07T19:51:08.885Z,-0.99
2023-02-07T19:53:37.866Z,-1.04
2023-02-07T19:56:09.410Z,-1.02
2023-02-07T19:58:39.725Z,-1.06
2023-02-07T20:01:07.717Z,-1.06
2023-02-07T20:03:37.207Z,-1.06
2023-02-07T20:06:08.572Z,-1.08
2023-02-07T20:08:41.741Z,-1.09
2023-02-07T20:11:11.441Z,-1.10
2023-02-07T20:13:40.731Z,-1.09
2023-02-07T20:16:11.772Z,-1.10
2023-02-07T20:18:40.795Z,-1.14
2023-02-07T20:21:11.750Z,-1.19
2023-02-07T20:23:42.023Z,-1.17
2023-02-07T20:26:13.719Z,-1.17
2023-02-07T20:28:43.211Z,-1.19
2023-02-07T20:31:13.075Z,-1.20
2023-02-07T20:33:43.884Z,-1.22
2023-02-07T20:36:13.714Z,-1.24
2023-02-07T20:38:44.962Z,-1.24
2023-02-07T20:41:15.856Z,-1.26
2023-02-07T20:43:47.438Z,-1.30
2023-02-07T20:46:17.196Z,-1.31
2023-02-07T20:48:45.133Z,-1.33
2023-02-07T20:51:12.694Z,-1.33
2023-02-07T20:53:41.461Z,-1.36
2023-02-07T20:56:13.199Z,-1.40
2023-02-07T20:58:41.729Z,-1.41
2023-02-07T21:01:13.768Z,-1.40
2023-02-07T21:03:41.811Z,-1.41
2023-02-07T21:06:11.250Z,-1.41
2023-02-07T21:08:40.464Z,-1.44
2023-02-07T21:11:09.618Z,-1.45
2023-02-07T21:13:39.747Z,-1.47
2023-02-07T21:16:08.688Z,-1.50
2023-02-07T21:18:37.853Z,-1.51
2023-02-07T21:21:07.897Z,-1.52
2023-02-07T21:23:36.269Z,-1.54
2023-02-07T21:26:05.314Z,-1.56
2023-02-07T21:28:33.259Z,-1.59
2023-02-07T21:31:06.911Z,-1.60
2023-02-07T21:33:34.846Z,-1.62
2023-02-07T21:36:07.895Z,-1.62
2023-02-07T21:38:38.265Z,-1.62
2023-02-07T21:41:07.103Z,-1.64
2023-02-07T21:43:35.461Z,-1.66
2023-02-07T21:46:08.056Z,-1.68
2023-02-07T21:48:36.688Z,-1.71
2023-02-07T21:51:06.305Z,-1.73
2023-02-07T21:53:34.700Z,-1.74
2023-02-07T21:56:02.997Z,-1.74
2023-02-07T21:58:31.268Z,-1.75
2023-02-07T22:01:07.786Z,-1.75
2023-02-07T22:03:36.139Z,-1.76
2023-02-07T22:06:04.174Z,-1.78
2023-02-07T22:08:32.729Z,-1.80
2023-02-07T22:11:04.290Z,-1.80
2023-02-07T22:13:32.698Z,-1.82
2023-02-07T22:16:00.845Z,-1.82
2023-02-07T22:18:30.052Z,-1.83
2023-02-07T22:21:04.720Z,-1.86
2023-02-07T22:23:34.800Z,-1.87
2023-02-07T22:26:02.874Z,-1.89
2023-02-07T22:28:30.807Z,-1.92
2023-02-07T22:31:00.628Z,-1.96
2023-02-07T22:33:29.799Z,-1.97
2023-02-07T22:35:57.746Z,-1.99
2023-02-07T22:38:25.494Z,-2.01
2023-02-07T22:40:53.167Z,-2.02
2023-02-07T22:43:20.924Z,-2.05
2023-02-07T22:45:48.561Z,-2.06
2023-02-07T22:48:17.344Z,-2.08
2023-02-07T22:50:46.263Z,-2.09
2023-02-07T22:53:15.591Z,-2.11
2023-02-07T22:55:43.181Z,-2.13
2023-02-07T22:58:15.199Z,-2.16
2023-02-07T23:00:43.010Z,-2.21
2023-02-07T23:03:11.285Z,-2.23
2023-02-07T23:05:40.064Z,-2.24
2023-02-07T23:08:09.950Z,-2.26
2023-02-07T23:10:38.162Z,-2.28
2023-02-07T23:13:07.827Z,-2.30
2023-02-07T23:15:46.348Z,-2.32
2023-02-07T23:18:15.870Z,-2.34
2023-02-07T23:20:45.188Z,-2.36
2023-02-07T23:23:14.488Z,-2.38
2023-02-07T23:25:44.878Z,-2.40
2023-02-07T23:28:14.571Z,-2.44
2023-02-07T23:30:42.979Z,-2.48
2023-02-07T23:33:12.817Z,-2.49
2023-02-07T23:35:44.150Z,-2.50
2023-02-07T23:38:11.830Z,-2.52
2023-02-07T23:40:41.053Z,-2.53
2023-02-07T23:43:08.961Z,-2.56
2023-02-07T23:45:36.618Z,-2.58
2023-02-07T23:48:06.630Z,-2.60
2023-02-07T23:50:34.476Z,-2.60
2023-02-07T23:53:02.584Z,-2.61
2023-02-07T23:55:31.731Z,-2.62
2023-02-07T23:58:00.744Z,-2.65
